Time;durP1;ratioP1;P1;durP2;ratioP2;P2;SDS_P1;SDS_P2;PMS_P1;PMS_P2;Temp;Humidity;BMP_temperature;BMP_pressure;BME280_temperature;BME280_humidity;BME280_pressure;Samples;Min_cycle;Max_cycle;Signal;HPM_P1;HPM_P2
2023/07/19 00:00:49;;;;;;;8.05;5.47;;;16.70;99.90;;;;;;5095411;28;20405;-61
2023/07/19 00:03:15;;;;;;;10.18;5.38;;;16.70;99.90;;;;;;5094141;28;20040;-61
2023/07/19 00:05:41;;;;;;;7.75;5.47;;;16.70;99.90;;;;;;5127425;27;20040;-61
2023/07/19 00:08:06;;;;;;;10.60;6.22;;;16.70;99.90;;;;;;5128136;27;20105;-61
2023/07/19 00:10:32;;;;;;;8.57;5.78;;;16.70;99.90;;;;;;5095056;28;20327;-61
2023/07/19 00:12:57;;;;;;;8.70;5.90;;;16.70;99.90;;;;;;5126670;27;20075;-61
2023/07/19 00:15:24;;;;;;;8.30;5.55;;;16.70;99.90;;;;;;5127257;27;20400;-61
2023/07/19 00:17:49;;;;;;;11.90;6.65;;;16.70;99.90;;;;;;5094957;28;20064;-61
2023/07/19 00:20:15;;;;;;;8.45;6.13;;;16.70;99.90;;;;;;5127130;27;20094;-61
2023/07/19 00:22:41;;;;;;;8.23;6.03;;;16.70;99.90;;;;;;5093393;28;20552;-62
2023/07/19 00:25:07;;;;;;;10.50;6.55;;;16.70;99.90;;;;;;5126703;27;20043;-61
2023/07/19 00:27:33;;;;;;;8.30;5.38;;;16.70;99.90;;;;;;5094781;28;20113;-61
2023/07/19 00:30:11;;;;;;;9.65;5.35;;;16.70;99.90;;;;;;5127580;27;20040;-61
2023/07/19 00:32:37;;;;;;;8.27;6.25;;;16.70;99.90;;;;;;5093856;28;20040;-61
2023/07/19 00:35:03;;;;;;;10.20;6.78;;;16.60;99.90;;;;;;5093995;28;20047;-61
2023/07/19 00:37:28;;;;;;;7.50;5.55;;;16.60;99.90;;;;;;5092208;28;20068;-61
2023/07/19 00:39:54;;;;;;;9.25;6.75;;;16.60;99.90;;;;;;5093837;28;20072;-61
2023/07/19 00:42:19;;;;;;;8.68;6.55;;;16.50;99.90;;;;;;5093027;28;20123;-61
2023/07/19 00:44:45;;;;;;;8.73;6.03;;;16.50;99.90;;;;;;5093171;28;20118;-61
2023/07/19 00:47:11;;;;;;;9.43;6.50;;;16.50;99.90;;;;;;5092654;28;20556;-61
2023/07/19 00:49:40;;;;;;;11.65;6.55;;;16.50;99.90;;;;;;5094050;28;20052;-61
2023/07/19 00:52:07;;;;;;;8.93;7.00;;;16.40;99.90;;;;;;5076315;28;20109;-61
2023/07/19 00:54:33;;;;;;;11.07;7.05;;;16.50;99.90;;;;;;5091908;28;20132;-61
2023/07/19 00:56:58;;;;;;;9.85;6.85;;;16.40;99.90;;;;;;5092703;28;20119;-61
2023/07/19 00:59:26;;;;;;;7.28;5.90;;;16.40;99.90;;;;;;5092768;28;20097;-61
2023/07/19 01:01:52;;;;;;;9.00;6.22;;;16.40;99.90;;;;;;5093097;28;20077;-61
2023/07/19 01:04:18;;;;;;;9.32;5.93;;;16.40;99.90;;;;;;5092762;28;20040;-61
2023/07/19 01:06:44;;;;;;;8.38;5.75;;;16.40;99.90;;;;;;5093630;28;20074;-61
2023/07/19 01:09:12;;;;;;;10.57;6.57;;;16.40;99.90;;;;;;5091691;28;20200;-61
2023/07/19 01:11:37;;;;;;;9.15;5.85;;;16.30;99.90;;;;;;5092908;28;20610;-61
2023/07/19 01:14:03;;;;;;;8.73;5.90;;;16.40;99.90;;;;;;5092475;28;20123;-61
2023/07/19 01:16:28;;;;;;;9.52;6.82;;;16.30;99.90;;;;;;5092680;28;20044;-62
2023/07/19 01:18:55;;;;;;;9.30;6.15;;;16.30;99.90;;;;;;5093294;28;20162;-61
2023/07/19 01:21:21;;;;;;;10.13;6.20;;;16.30;99.90;;;;;;5091823;28;20043;-61
2023/07/19 01:23:47;;;;;;;9.85;6.40;;;16.30;99.90;;;;;;5093746;28;20132;-61
2023/07/19 01:26:13;;;;;;;9.52;6.13;;;16.30;99.90;;;;;;5125828;27;20071;-61
2023/07/19 01:28:44;;;;;;;8.85;6.43;;;16.30;99.90;;;;;;5125992;27;20044;-61
2023/07/19 01:31:13;;;;;;;10.00;6.95;;;16.30;99.90;;;;;;5092640;28;20048;-61
2023/07/19 01:33:38;;;;;;;9.95;7.20;;;16.30;99.90;;;;;;5092437;28;20044;-61
2023/07/19 01:36:04;;;;;;;10.60;6.38;;;16.20;99.90;;;;;;5092658;28;20042;-61
2023/07/19 01:38:30;;;;;;;8.70;6.63;;;16.20;99.90;;;;;;5092004;28;20484;-61
2023/07/19 01:40:56;;;;;;;9.88;6.97;;;16.20;99.90;;;;;;5125984;27;20405;-61
2023/07/19 01:43:22;;;;;;;9.10;7.13;;;16.20;99.90;;;;;;5092481;28;20086;-62
2023/07/19 01:45:47;;;;;;;9.77;6.85;;;16.20;99.90;;;;;;5091892;28;20050;-62
2023/07/19 01:48:13;;;;;;;11.20;7.15;;;16.20;99.90;;;;;;5092077;28;20090;-62
2023/07/19 01:50:39;;;;;;;12.68;7.40;;;16.20;99.90;;;;;;5125294;27;20749;-62
2023/07/19 01:53:04;;;;;;;9.65;7.57;;;16.20;99.90;;;;;;5093401;28;20048;-62
2023/07/19 01:55:30;;;;;;;9.85;7.82;;;16.20;99.90;;;;;;5091350;28;20028;-62
2023/07/19 01:57:56;;;;;;;10.13;7.72;;;16.20;99.90;;;;;;5125191;27;20036;-62
2023/07/19 02:00:22;;;;;;;10.02;7.70;;;16.20;99.90;;;;;;5092756;28;20111;-62
2023/07/19 02:02:47;;;;;;;10.30;8.27;;;16.10;99.90;;;;;;5125711;27;20051;-62
2023/07/19 02:05:13;;;;;;;10.55;8.10;;;16.10;99.90;;;;;;5124756;27;20036;-62
2023/07/19 02:07:39;;;;;;;13.27;7.88;;;16.20;99.90;;;;;;5093152;28;20390;-62
2023/07/19 02:10:05;;;;;;;10.60;7.72;;;16.10;99.90;;;;;;5125757;27;20058;-62
2023/07/19 02:12:31;;;;;;;10.57;7.15;;;16.10;99.90;;;;;;5092005;28;20051;-62
2023/07/19 02:14:56;;;;;;;11.35;8.20;;;16.10;99.90;;;;;;5108088;28;20048;-62
2023/07/19 02:17:22;;;;;;;10.57;8.23;;;16.10;99.90;;;;;;5091601;28;20040;-62
2023/07/19 02:19:48;;;;;;;11.07;8.75;;;16.10;99.90;;;;;;5124603;27;20044;-62
2023/07/19 02:22:15;;;;;;;11.82;8.80;;;16.10;99.90;;;;;;5092533;28;20032;-62
2023/07/19 02:24:41;;;;;;;13.35;9.25;;;16.10;99.90;;;;;;5090682;28;20044;-62
2023/07/19 02:27:07;;;;;;;12.00;9.10;;;16.10;99.90;;;;;;5092258;28;20076;-62
2023/07/19 02:29:33;;;;;;;11.18;8.50;;;16.10;99.90;;;;;;5125209;27;20075;-62
2023/07/19 02:31:58;;;;;;;10.57;8.00;;;16.10;99.90;;;;;;5091569;28;20036;-62
2023/07/19 02:34:27;;;;;;;11.93;8.18;;;16.10;99.90;;;;;;5108271;28;20042;-62
2023/07/19 02:36:53;;;;;;;13.35;8.27;;;16.10;99.90;;;;;;5092201;28;20044;-62
2023/07/19 02:39:20;;;;;;;11.57;8.57;;;16.10;99.90;;;;;;5090238;28;20042;-61
2023/07/19 02:41:46;;;;;;;11.15;7.82;;;16.10;99.90;;;;;;5074550;28;20044;-62
2023/07/19 02:44:11;;;;;;;13.18;8.90;;;16.00;99.90;;;;;;5091556;28;20093;-62
2023/07/19 02:46:37;;;;;;;11.45;7.82;;;16.00;99.90;;;;;;5089930;28;20594;-62
2023/07/19 02:49:03;;;;;;;11.40;8.80;;;16.00;99.90;;;;;;5091082;28;20056;-62
2023/07/19 02:51:28;;;;;;;10.18;7.75;;;16.00;99.90;;;;;;5107957;28;20044;-62
2023/07/19 02:53:54;;;;;;;11.30;8.88;;;16.00;99.90;;;;;;5124116;27;20127;-62
2023/07/19 02:56:20;;;;;;;10.48;8.35;;;16.00;99.90;;;;;;5124425;28;20409;-62
2023/07/19 02:58:46;;;;;;;12.90;7.97;;;16.00;99.90;;;;;;5093148;28;20032;-62
2023/07/19 03:01:14;;;;;;;9.95;8.27;;;16.00;99.90;;;;;;5097111;28;20040;-62
2023/07/19 03:03:41;;;;;;;10.23;7.80;;;16.00;99.90;;;;;;5099157;28;20047;-62
2023/07/19 03:06:09;;;;;;;11.95;9.23;;;16.00;99.90;;;;;;5097580;28;20059;-61
2023/07/19 03:08:36;;;;;;;12.70;8.65;;;15.90;99.90;;;;;;5097911;28;20404;-61
2023/07/19 03:11:02;;;;;;;10.93;8.43;;;15.90;99.90;;;;;;5098797;28;20051;-62
2023/07/19 03:13:28;;;;;;;11.45;8.70;;;16.00;99.90;;;;;;5097356;28;20039;-61
2023/07/19 03:15:53;;;;;;;11.02;8.10;;;16.00;99.90;;;;;;5097851;28;20400;-62
2023/07/19 03:18:19;;;;;;;11.77;7.85;;;16.00;99.90;;;;;;5131673;27;20135;-62
2023/07/19 03:20:45;;;;;;;11.52;8.38;;;16.00;99.90;;;;;;5097709;28;20093;-61
2023/07/19 03:23:11;;;;;;;12.13;8.43;;;16.00;99.90;;;;;;5096894;28;20032;-61
2023/07/19 03:25:36;;;;;;;12.07;8.57;;;15.90;99.90;;;;;;5131019;27;20071;-62
2023/07/19 03:28:02;;;;;;;11.23;8.73;;;15.90;99.90;;;;;;5113426;28;20480;-61
2023/07/19 03:30:28;;;;;;;11.77;9.63;;;15.90;99.90;;;;;;5097318;28;20048;-61
2023/07/19 03:32:53;;;;;;;10.93;8.65;;;15.90;99.90;;;;;;5131191;27;20075;-62
2023/07/19 03:35:19;;;;;;;13.35;9.55;;;15.90;99.90;;;;;;5130346;27;20090;-62
2023/07/19 03:37:45;;;;;;;12.18;9.20;;;15.90;99.90;;;;;;5098554;28;20404;-65
2023/07/19 03:40:11;;;;;;;13.18;8.55;;;15.80;99.90;;;;;;5131547;27;20461;-62
2023/07/19 03:42:37;;;;;;;13.75;9.02;;;15.80;99.90;;;;;;5097416;28;20481;-61
2023/07/19 03:45:04;;;;;;;12.60;9.00;;;15.80;99.90;;;;;;5097102;28;20052;-61
2023/07/19 03:47:30;;;;;;;12.57;9.07;;;15.80;99.90;;;;;;5097985;28;20048;-61
2023/07/19 03:49:55;;;;;;;15.15;10.10;;;15.80;99.90;;;;;;5129931;27;20096;-61
2023/07/19 03:52:21;;;;;;;13.25;9.10;;;15.80;99.90;;;;;;5097072;28;20043;-61
2023/07/19 03:54:48;;;;;;;13.80;9.93;;;15.80;99.90;;;;;;5098280;28;20125;-61
2023/07/19 03:57:13;;;;;;;12.07;8.90;;;15.80;99.90;;;;;;5095914;28;20532;-61
2023/07/19 03:59:39;;;;;;;12.00;8.80;;;15.80;99.90;;;;;;5098392;28;20107;-61
2023/07/19 04:02:05;;;;;;;13.50;9.15;;;15.80;99.90;;;;;;5097334;28;20040;-61
2023/07/19 04:04:30;;;;;;;10.57;8.02;;;15.80;99.90;;;;;;5113102;28;20408;-61
2023/07/19 04:06:56;;;;;;;12.35;8.95;;;15.80;99.90;;;;;;5098016;28;20043;-61
2023/07/19 04:09:22;;;;;;;13.35;7.50;;;15.80;99.90;;;;;;5131057;27;20067;-61
2023/07/19 04:11:47;;;;;;;9.55;7.25;;;15.80;99.90;;;;;;5126376;27;20036;-62
2023/07/19 04:14:13;;;;;;;9.48;7.30;;;15.80;99.90;;;;;;5127864;27;20070;-62
2023/07/19 04:16:40;;;;;;;12.88;7.50;;;15.90;99.90;;;;;;5093446;28;20044;-62
2023/07/19 04:19:06;;;;;;;9.27;6.78;;;15.90;99.90;;;;;;5093070;28;20127;-61
2023/07/19 04:21:32;;;;;;;10.55;7.28;;;15.80;99.90;;;;;;5093651;28;20170;-61
2023/07/19 04:23:57;;;;;;;12.32;7.70;;;15.80;99.90;;;;;;5093614;28;20047;-61
2023/07/19 04:26:23;;;;;;;10.43;6.65;;;15.90;99.90;;;;;;5126791;27;20047;-61
2023/07/19 04:28:49;;;;;;;9.82;6.30;;;15.90;99.90;;;;;;5094754;28;20067;-62
2023/07/19 04:31:14;;;;;;;10.82;6.93;;;15.90;99.90;;;;;;5092777;28;20439;-61
2023/07/19 04:33:41;;;;;;;17.63;7.63;;;15.90;99.90;;;;;;5127341;27;20480;-61
2023/07/19 04:36:12;;;;;;;10.30;6.15;;;15.90;99.90;;;;;;5093355;28;20040;-61
2023/07/19 04:38:37;;;;;;;9.93;6.20;;;15.90;99.90;;;;;;5092473;28;20047;-61
2023/07/19 04:41:03;;;;;;;10.27;7.00;;;15.90;99.90;;;;;;5127195;27;20043;-61
2023/07/19 04:43:30;;;;;;;10.27;6.93;;;16.00;99.90;;;;;;5094631;28;20362;-62
2023/07/19 04:45:55;;;;;;;9.10;6.40;;;16.00;99.90;;;;;;5092197;28;20040;-61
2023/07/19 04:48:21;;;;;;;11.13;7.32;;;16.00;99.90;;;;;;5126996;27;20040;-61
2023/07/19 04:50:53;;;;;;;9.77;7.13;;;16.00;99.90;;;;;;5110034;27;20056;-62
2023/07/19 04:53:19;;;;;;;13.25;6.50;;;15.90;99.90;;;;;;5092428;28;20427;-61
2023/07/19 04:55:44;;;;;;;10.27;7.40;;;16.00;99.90;;;;;;5093888;28;20040;-61
2023/07/19 04:58:14;;;;;;;11.30;6.60;;;16.00;99.90;;;;;;5094573;28;20188;-62
2023/07/19 05:00:39;;;;;;;9.80;6.68;;;16.10;99.90;;;;;;5092030;28;20054;-61
2023/07/19 05:03:05;;;;;;;11.95;6.93;;;16.00;99.90;;;;;;5127223;27;20040;-61
2023/07/19 05:05:31;;;;;;;12.38;7.28;;;16.10;99.90;;;;;;5092480;28;20132;-61
2023/07/19 05:07:58;;;;;;;11.05;7.57;;;16.10;99.90;;;;;;5125964;27;20040;-61
2023/07/19 05:10:23;;;;;;;9.45;6.90;;;16.10;99.90;;;;;;5092940;28;20044;-61
2023/07/19 05:12:49;;;;;;;15.73;6.30;;;16.10;99.90;;;;;;5093940;28;20546;-61
2023/07/19 05:15:15;;;;;;;12.00;6.18;;;16.10;99.90;;;;;;5093039;28;20036;-61
2023/07/19 05:17:41;;;;;;;12.40;5.93;;;16.10;99.90;;;;;;5092214;28;20115;-62
2023/07/19 05:20:07;;;;;;;8.00;5.15;;;16.10;99.90;;;;;;5094074;28;20028;-61
2023/07/19 05:22:33;;;;;;;11.60;5.45;;;16.20;99.90;;;;;;5091644;28;20044;-61
2023/07/19 05:24:59;;;;;;;10.52;5.40;;;16.10;99.90;;;;;;5092379;28;20054;-61
2023/07/19 05:27:25;;;;;;;13.25;5.55;;;16.20;99.90;;;;;;5091940;28;20508;-62
2023/07/19 05:29:51;;;;;;;13.00;5.13;;;16.20;99.90;;;;;;5125476;27;20047;-61
2023/07/19 05:32:16;;;;;;;6.80;4.13;;;16.20;99.90;;;;;;5093394;28;20047;-61
2023/07/19 05:34:42;;;;;;;9.32;4.78;;;16.20;99.90;;;;;;5092529;28;20040;-62
2023/07/19 05:37:08;;;;;;;7.55;4.80;;;16.20;99.90;;;;;;5093416;28;20032;-61
2023/07/19 05:39:34;;;;;;;9.40;3.88;;;16.20;99.90;;;;;;5126247;27;20047;-61
2023/07/19 05:42:00;;;;;;;8.15;3.72;;;16.20;99.90;;;;;;5088255;28;20044;-61
2023/07/19 05:44:26;;;;;;;6.95;3.42;;;16.20;99.90;;;;;;5092055;28;20040;-61
2023/07/19 05:46:52;;;;;;;6.63;3.42;;;16.20;99.90;;;;;;5092538;28;20043;-62
2023/07/19 05:49:18;;;;;;;9.93;3.17;;;16.20;99.90;;;;;;5090215;28;20127;-61
2023/07/19 05:51:44;;;;;;;6.90;2.90;;;16.20;99.90;;;;;;5093002;28;20178;-61
2023/07/19 05:54:10;;;;;;;8.20;3.60;;;16.20;99.90;;;;;;5126516;27;20130;-61
2023/07/19 05:56:36;;;;;;;9.55;2.72;;;16.20;99.90;;;;;;5092039;28;20038;-62
2023/07/19 05:59:04;;;;;;;7.85;2.80;;;16.20;99.90;;;;;;5091952;28;20392;-61
2023/07/19 06:01:30;;;;;;;6.70;2.80;;;16.20;99.90;;;;;;5092773;28;20058;-62
2023/07/19 06:03:55;;;;;;;8.35;3.03;;;16.20;99.90;;;;;;5092154;28;20051;-61
2023/07/19 06:06:21;;;;;;;6.70;2.92;;;16.30;99.90;;;;;;5091263;28;20489;-61
2023/07/19 06:08:47;;;;;;;9.13;3.85;;;16.30;99.90;;;;;;5114022;27;20040;-61
2023/07/19 06:11:13;;;;;;;8.65;3.67;;;16.30;99.90;;;;;;5090209;28;20032;-61
2023/07/19 06:13:38;;;;;;;6.18;3.10;;;16.30;99.90;;;;;;5091720;28;20401;-61
2023/07/19 06:16:04;;;;;;;10.80;3.38;;;16.30;99.90;;;;;;5092369;28;20048;-62
2023/07/19 06:18:30;;;;;;;7.15;3.45;;;16.30;99.90;;;;;;5090738;28;20083;-62
2023/07/19 06:20:56;;;;;;;6.45;3.00;;;16.30;99.90;;;;;;5091319;28;20028;-62
2023/07/19 06:23:22;;;;;;;7.10;2.97;;;16.40;99.90;;;;;;5091454;28;20127;-62
2023/07/19 06:25:49;;;;;;;6.68;3.10;;;16.30;99.90;;;;;;5091348;28;20043;-62
2023/07/19 06:28:15;;;;;;;8.18;3.50;;;16.40;99.90;;;;;;5091066;28;20097;-62
2023/07/19 06:30:41;;;;;;;7.03;2.85;;;16.40;99.90;;;;;;5092467;28;20055;-63
2023/07/19 06:33:07;;;;;;;6.40;2.75;;;16.40;99.90;;;;;;5090285;28;20040;-62
2023/07/19 06:35:33;;;;;;;7.88;3.20;;;16.40;99.90;;;;;;5089545;28;20096;-62
2023/07/19 06:37:59;;;;;;;10.02;3.63;;;16.50;99.90;;;;;;5087907;28;20036;-62
2023/07/19 06:40:26;;;;;;;7.53;3.20;;;16.50;99.90;;;;;;5089708;28;20039;-62
2023/07/19 06:42:52;;;;;;;6.60;3.17;;;16.50;99.90;;;;;;5091515;28;20024;-62
2023/07/19 06:45:18;;;;;;;6.43;3.33;;;16.50;99.90;;;;;;5091309;28;20036;-62
2023/07/19 06:47:44;;;;;;;9.07;3.72;;;16.60;99.90;;;;;;5092351;28;20044;-62
2023/07/19 06:50:10;;;;;;;11.30;3.15;;;16.60;99.90;;;;;;5091054;28;20059;-62
2023/07/19 06:52:36;;;;;;;8.48;2.80;;;16.60;99.90;;;;;;5089944;28;20055;-62
2023/07/19 06:55:03;;;;;;;8.35;3.25;;;16.60;99.90;;;;;;5092251;28;20048;-62
2023/07/19 06:57:30;;;;;;;6.43;2.97;;;16.60;99.90;;;;;;5075346;28;20040;-62
2023/07/19 06:59:56;;;;;;;6.70;2.92;;;16.70;99.90;;;;;;5067248;28;20060;-63
2023/07/19 07:02:22;;;;;;;7.60;3.08;;;16.70;99.90;;;;;;5069047;28;20036;-63
2023/07/19 07:04:48;;;;;;;8.60;2.63;;;16.80;99.90;;;;;;5069254;28;20123;-62
2023/07/19 07:07:19;;;;;;;5.47;2.58;;;16.80;99.90;;;;;;5067168;28;20040;-63
2023/07/19 07:09:48;;;;;;;6.88;2.35;;;16.90;99.90;;;;;;5067682;28;20048;-62
2023/07/19 07:12:13;;;;;;;6.60;2.95;;;17.10;99.90;;;;;;5080403;28;20036;-62
2023/07/19 07:14:39;;;;;;;7.20;2.65;;;17.10;99.90;;;;;;5086451;28;20131;-62
2023/07/19 07:17:07;;;;;;;5.32;2.28;;;17.20;99.90;;;;;;5089311;28;20071;-61
2023/07/19 07:19:33;;;;;;;6.50;2.60;;;17.30;99.90;;;;;;5089077;28;20036;-61
2023/07/19 07:21:59;;;;;;;5.22;1.95;;;17.30;99.90;;;;;;5086807;28;20066;-62
2023/07/19 07:24:24;;;;;;;4.97;2.22;;;17.40;99.90;;;;;;5088062;28;20040;-63
2023/07/19 07:26:50;;;;;;;7.90;2.50;;;17.40;99.90;;;;;;5117874;28;20123;-63
2023/07/19 07:29:16;;;;;;;10.20;2.25;;;17.50;99.90;;;;;;5083457;28;20032;-63
2023/07/19 07:31:42;;;;;;;9.45;2.83;;;17.50;99.90;;;;;;5087361;28;20462;-62
2023/07/19 07:34:08;;;;;;;5.18;2.15;;;17.50;99.90;;;;;;5069109;28;20043;-63
2023/07/19 07:36:34;;;;;;;4.97;1.83;;;17.60;99.90;;;;;;5088649;28;20437;-63
2023/07/19 07:38:59;;;;;;;4.93;1.60;;;17.70;99.90;;;;;;5087775;28;20119;-63
2023/07/19 07:41:25;;;;;;;4.85;2.00;;;17.90;99.90;;;;;;5086757;28;20064;-63
2023/07/19 07:43:51;;;;;;;4.22;1.85;;;18.10;99.90;;;;;;5108945;28;20054;-62
2023/07/19 07:46:16;;;;;;;4.35;1.60;;;18.30;99.90;;;;;;5123087;27;20118;-62
2023/07/19 07:48:42;;;;;;;12.95;2.30;;;18.50;99.90;;;;;;5097667;28;20036;-62
2023/07/19 07:51:08;;;;;;;4.40;1.75;;;18.80;99.90;;;;;;5082851;28;20044;-62
2023/07/19 07:53:33;;;;;;;13.45;2.30;;;19.00;99.90;;;;;;5093072;28;20382;-62
2023/07/19 07:55:59;;;;;;;5.43;1.88;;;19.10;99.90;;;;;;5123229;27;20139;-61
2023/07/19 07:58:25;;;;;;;8.23;1.75;;;19.00;99.90;;;;;;5100000;28;20424;-62
2023/07/19 08:00:53;;;;;;;4.90;1.65;;;18.80;99.90;;;;;;5093135;28;20397;-62
2023/07/19 08:03:19;;;;;;;3.80;2.08;;;18.70;99.90;;;;;;5090440;28;20250;-62
2023/07/19 08:05:45;;;;;;;3.92;1.58;;;18.70;99.90;;;;;;5092636;28;20526;-62
2023/07/19 08:08:11;;;;;;;5.20;2.10;;;18.70;99.90;;;;;;5091512;28;20044;-62
2023/07/19 08:10:38;;;;;;;5.30;1.70;;;18.60;99.90;;;;;;5073721;28;20062;-62
2023/07/19 08:13:07;;;;;;;4.18;1.73;;;18.60;99.90;;;;;;5098141;28;20077;-62
2023/07/19 08:15:34;;;;;;;4.10;1.40;;;18.70;99.90;;;;;;5087789;28;20410;-62
2023/07/19 08:18:00;;;;;;;6.18;1.73;;;18.70;99.90;;;;;;5091559;28;20040;-62
2023/07/19 08:20:26;;;;;;;7.47;2.03;;;18.80;99.90;;;;;;5089732;28;20718;-63
2023/07/19 08:22:51;;;;;;;6.78;2.58;;;18.80;99.90;;;;;;5092102;28;20473;-62
2023/07/19 08:25:21;;;;;;;6.03;1.90;;;18.80;99.90;;;;;;5090255;28;20036;-61
2023/07/19 08:27:47;;;;;;;7.90;2.55;;;18.70;99.90;;;;;;5090903;28;20044;-62
2023/07/19 08:30:17;;;;;;;5.97;1.98;;;18.70;99.90;;;;;;5073680;28;20114;-62
2023/07/19 08:32:47;;;;;;;4.70;1.70;;;18.50;99.90;;;;;;5089692;28;20040;-62
2023/07/19 08:35:16;;;;;;;4.75;2.00;;;18.40;99.90;;;;;;5090527;28;20132;-63
2023/07/19 08:37:46;;;;;;;5.72;2.00;;;18.30;99.90;;;;;;5091310;28;20521;-63
2023/07/19 08:40:16;;;;;;;8.80;2.25;;;18.30;99.90;;;;;;5091735;28;20066;-63
2023/07/19 08:42:43;;;;;;;6.20;1.80;;;18.30;99.90;;;;;;5095159;28;20028;-63
2023/07/19 08:45:11;;;;;;;5.00;1.90;;;18.40;99.90;;;;;;5090912;28;20448;-65
2023/07/19 08:47:38;;;;;;;5.78;1.50;;;18.60;99.90;;;;;;5092031;28;20069;-64
2023/07/19 08:50:05;;;;;;;9.15;1.95;;;18.80;99.90;;;;;;5073506;28;20067;-62
2023/07/19 08:52:32;;;;;;;4.50;1.70;;;18.90;99.90;;;;;;5089869;28;20087;-60
2023/07/19 08:55:00;;;;;;;4.60;1.60;;;19.00;99.90;;;;;;5091884;28;20056;-60
2023/07/19 08:57:26;;;;;;;4.00;1.67;;;19.10;99.90;;;;;;5090771;28;20496;-61
2023/07/19 08:59:51;;;;;;;5.28;1.73;;;19.10;99.90;;;;;;5089763;28;20047;-61
2023/07/19 09:02:17;;;;;;;5.57;2.17;;;18.90;99.90;;;;;;5091053;28;20794;-63
2023/07/19 09:05:15;;;;;;;5.47;2.05;;;19.00;99.90;;;;;;5097404;28;20114;-62
2023/07/19 09:07:41;;;;;;;8.45;1.83;;;19.20;99.90;;;;;;5047664;28;20127;-65
2023/07/19 09:10:09;;;;;;;5.38;2.60;;;19.30;99.90;;;;;;5125643;27;20556;-65
2023/07/19 09:12:44;;;;;;;4.63;1.92;;;19.30;99.90;;;;;;5092170;28;20039;-64
2023/07/19 09:15:12;;;;;;;6.35;2.10;;;19.30;99.90;;;;;;5094377;28;20480;-66
2023/07/19 09:17:42;;;;;;;5.97;2.45;;;19.30;99.90;;;;;;5071779;28;20043;-64
2023/07/19 09:20:09;;;;;;;5.28;1.98;;;19.40;99.90;;;;;;5071726;28;20040;-64
2023/07/19 09:22:36;;;;;;;8.02;2.10;;;19.40;99.90;;;;;;5073481;28;20048;-65
2023/07/19 09:25:03;;;;;;;5.28;2.10;;;19.20;99.90;;;;;;5091677;28;20036;-63
2023/07/19 09:27:31;;;;;;;5.03;1.85;;;19.20;99.90;;;;;;5115310;27;20547;-62
2023/07/19 09:29:57;;;;;;;5.18;2.05;;;19.00;99.90;;;;;;5092238;28;20047;-62
2023/07/19 09:32:24;;;;;;;4.47;2.20;;;18.80;99.90;;;;;;5075215;28;20064;-64
2023/07/19 09:34:57;;;;;;;5.80;1.92;;;18.90;99.90;;;;;;5074711;28;20386;-64
2023/07/19 09:37:25;;;;;;;6.25;2.50;;;18.90;99.90;;;;;;5092093;28;20084;-64
2023/07/19 09:39:51;;;;;;;5.07;1.98;;;18.90;99.90;;;;;;5073089;28;20106;-64
2023/07/19 09:42:19;;;;;;;5.75;1.73;;;19.00;99.90;;;;;;5103151;28;20071;-63
2023/07/19 09:44:48;;;;;;;6.35;2.10;;;18.90;99.90;;;;;;5091873;28;20028;-66
2023/07/19 09:47:15;;;;;;;6.60;2.13;;;18.90;99.90;;;;;;5105960;28;20041;-66
2023/07/19 09:49:44;;;;;;;7.35;2.22;;;18.80;99.90;;;;;;5054109;28;20054;-66
2023/07/19 09:52:17;;;;;;;5.03;1.88;;;18.80;99.90;;;;;;5087156;28;20043;-65
2023/07/19 09:54:44;;;;;;;3.38;1.55;;;18.70;99.90;;;;;;5074919;28;20044;-64
2023/07/19 09:57:10;;;;;;;5.00;1.75;;;18.60;99.90;;;;;;5074461;28;20039;-63
2023/07/19 09:59:46;;;;;;;4.70;1.70;;;18.70;99.90;;;;;;5091298;28;20051;-64
2023/07/19 10:02:13;;;;;;;3.78;1.42;;;18.80;99.90;;;;;;5090310;28;20040;-64
2023/07/19 10:04:42;;;;;;;5.15;2.03;;;18.90;99.90;;;;;;5055396;28;20040;-67
2023/07/19 10:07:09;;;;;;;3.88;1.63;;;19.00;99.90;;;;;;5105777;28;20123;-62
2023/07/19 10:09:40;;;;;;;4.43;1.70;;;18.80;99.90;;;;;;5082935;28;20044;-66
2023/07/19 10:12:26;;;;;;;3.78;1.40;;;18.80;99.90;;;;;;5091460;28;20048;-64
2023/07/19 10:15:06;;;;;;;4.47;1.40;;;18.60;99.90;;;;;;5091490;28;20119;-62
2023/07/19 10:17:40;;;;;;;3.63;1.23;;;18.50;99.90;;;;;;5090738;28;20040;-62
2023/07/19 10:20:08;;;;;;;4.80;1.83;;;18.50;99.90;;;;;;5071737;28;20081;-62
2023/07/19 10:22:51;;;;;;;7.22;1.80;;;18.60;99.90;;;;;;5105230;28;20055;-62
2023/07/19 10:25:22;;;;;;;4.50;1.88;;;18.90;99.90;;;;;;5070760;28;20089;-61
2023/07/19 10:27:59;;;;;;;4.40;1.77;;;19.20;99.90;;;;;;5072829;28;20041;-62
2023/07/19 10:30:46;;;;;;;3.58;1.52;;;19.30;99.90;;;;;;5084002;28;20397;-62
2023/07/19 10:33:14;;;;;;;3.28;1.30;;;19.40;99.90;;;;;;5092180;28;20032;-62
2023/07/19 10:35:41;;;;;;;3.90;1.70;;;19.40;99.90;;;;;;5091559;28;20097;-62
2023/07/19 10:38:26;;;;;;;6.15;2.08;;;19.40;99.90;;;;;;5088435;28;20044;-62
2023/07/19 10:40:59;;;;;;;4.88;1.40;;;19.30;99.90;;;;;;5092342;28;20156;-63
2023/07/19 10:43:26;;;;;;;3.17;1.55;;;19.20;99.90;;;;;;5091003;28;20079;-63
2023/07/19 10:45:52;;;;;;;4.30;1.60;;;19.30;99.90;;;;;;5091870;28;20123;-62
2023/07/19 10:48:23;;;;;;;4.13;1.77;;;19.50;99.90;;;;;;5090838;28;20071;-62
2023/07/19 10:50:49;;;;;;;3.97;1.63;;;19.80;99.90;;;;;;5090739;28;20528;-62
2023/07/19 10:53:14;;;;;;;5.07;1.85;;;20.00;99.90;;;;;;5107115;28;20090;-62
2023/07/19 10:55:41;;;;;;;3.47;1.40;;;20.20;99.90;;;;;;5092219;28;20043;-63
2023/07/19 10:58:07;;;;;;;4.22;1.80;;;20.40;99.90;;;;;;5091063;28;20066;-67
2023/07/19 11:00:39;;;;;;;4.43;1.67;;;20.40;99.90;;;;;;5090942;28;20046;-63
2023/07/19 11:03:07;;;;;;;5.72;1.48;;;20.50;99.90;;;;;;5091355;28;20088;-64
2023/07/19 11:05:38;;;;;;;5.28;1.98;;;20.40;99.90;;;;;;5091224;28;20044;-65
2023/07/19 11:08:03;;;;;;;5.32;1.80;;;20.40;99.90;;;;;;5090903;28;20047;-66
2023/07/19 11:10:30;;;;;;;3.72;1.83;;;20.50;99.90;;;;;;5091377;28;20044;-65
2023/07/19 11:12:56;;;;;;;3.65;1.45;;;20.50;99.90;;;;;;5089843;28;20374;-69
2023/07/19 11:15:21;;;;;;;7.70;1.85;;;20.50;99.90;;;;;;5090632;28;20036;-64
2023/07/19 11:17:48;;;;;;;4.55;1.60;;;20.30;99.90;;;;;;5092170;28;20405;-63
2023/07/19 11:20:30;;;;;;;2.60;1.20;;;20.20;99.90;;;;;;5091227;28;20037;-64
2023/07/19 11:23:05;;;;;;;5.57;1.83;;;20.40;99.90;;;;;;5096482;28;20116;-63
2023/07/19 11:25:30;;;;;;;4.97;1.40;;;20.30;99.90;;;;;;5095281;28;20055;-63
2023/07/19 11:27:56;;;;;;;7.57;1.65;;;20.20;99.90;;;;;;5095400;28;20036;-64
2023/07/19 11:30:23;;;;;;;5.15;1.42;;;20.30;99.90;;;;;;5096375;28;20405;-69
2023/07/19 11:33:06;;;;;;;5.75;1.50;;;20.40;99.90;;;;;;5077686;28;20036;-70
2023/07/19 11:35:32;;;;;;;5.93;1.63;;;20.40;99.90;;;;;;5093176;28;20040;-66
2023/07/19 11:37:58;;;;;;;4.82;1.50;;;20.30;99.90;;;;;;5094379;28;20055;-64
2023/07/19 11:40:24;;;;;;;5.60;1.63;;;20.20;99.90;;;;;;5094691;28;20115;-65
2023/07/19 11:42:53;;;;;;;5.88;1.30;;;20.10;99.90;;;;;;5094663;28;20097;-65
2023/07/19 11:45:31;;;;;;;4.88;1.38;;;20.30;99.90;;;;;;5094443;28;20036;-65
2023/07/19 11:48:02;;;;;;;3.00;1.25;;;20.60;99.90;;;;;;5090932;28;20503;-64
2023/07/19 11:50:28;;;;;;;2.92;1.20;;;20.80;99.90;;;;;;5093693;28;20109;-63
2023/07/19 11:52:56;;;;;;;4.65;1.60;;;20.60;99.90;;;;;;5094772;28;20079;-63
2023/07/19 11:55:23;;;;;;;3.63;1.60;;;20.40;99.90;;;;;;5094803;28;20040;-64
2023/07/19 11:57:52;;;;;;;5.05;1.52;;;20.40;99.90;;;;;;5094198;28;20037;-62
2023/07/19 12:00:20;;;;;;;4.75;1.60;;;20.30;99.90;;;;;;5093962;28;20032;-62
2023/07/19 12:02:48;;;;;;;3.85;1.20;;;20.20;99.90;;;;;;5076276;28;20553;-62
2023/07/19 12:05:23;;;;;;;3.80;1.63;;;20.30;99.90;;;;;;5094412;28;20377;-62
2023/07/19 12:07:50;;;;;;;3.78;1.33;;;20.60;99.90;;;;;;5094566;28;20480;-63
2023/07/19 12:10:20;;;;;;;3.53;1.15;;;20.60;99.90;;;;;;5093748;28;20070;-62
2023/07/19 12:12:48;;;;;;;4.55;1.52;;;20.50;99.90;;;;;;5093716;28;20051;-62
2023/07/19 12:15:15;;;;;;;3.70;1.27;;;20.60;99.90;;;;;;5076800;28;20489;-62
2023/07/19 12:17:40;;;;;;;3.92;1.38;;;20.50;99.90;;;;;;5076205;28;20044;-62
2023/07/19 12:20:08;;;;;;;2.80;1.13;;;20.60;99.90;;;;;;5094657;28;20043;-62
2023/07/19 12:22:39;;;;;;;5.05;1.13;;;20.70;99.90;;;;;;5094766;28;20037;-63
2023/07/19 12:25:05;;;;;;;4.28;1.20;;;20.60;99.90;;;;;;5094097;28;20476;-63
2023/07/19 12:27:31;;;;;;;2.88;1.10;;;20.70;99.90;;;;;;5093848;28;20488;-63
2023/07/19 12:29:58;;;;;;;3.67;1.20;;;20.80;99.90;;;;;;5093994;28;20457;-64
2023/07/19 12:32:27;;;;;;;3.92;1.17;;;20.70;99.90;;;;;;5092751;28;20120;-65
2023/07/19 12:34:54;;;;;;;3.65;1.00;;;20.70;99.90;;;;;;5093381;28;20097;-63
2023/07/19 12:37:20;;;;;;;4.70;1.40;;;20.80;99.90;;;;;;5089336;28;20044;-63
2023/07/19 12:39:46;;;;;;;5.10;1.30;;;20.90;99.90;;;;;;5092417;28;20101;-62
2023/07/19 12:42:11;;;;;;;4.68;1.15;;;21.00;99.90;;;;;;5089147;28;20130;-63